Aérodrome :
LOGIN :

S'inscrire | Disclaimer

   EN    FR    IT 

 










Légende :    VFR   VFR Marginal   IFR   IFR Intensif   IFR Très Intensif
Visi : 
Plafond : 
>= 8 km
>= 3000ft
5 à 8 km
1000 à 3000 ft
1500m à 5 km
500 à 1000 ft
800 à 1500m
200 à 500 ft
< 800m
< 200 ft
Symboles :   Orages  Brouillard  Fortes neiges  Fortes précipitations  Vent > 20 kt
SIGMETs :   Divers  Orages  Givrage  Turbulence  Onde Orograph.  Cendres Volcan.






- Altitude de l'aérodrome : 218 ft
- Code IATA : LBG


LFPB - Paris / Le Bourget

DERNIER METAR :
  • 091130Z AUTO 26011KT 220V300 9999 FEW047 27/15 Q1015 NOSIG

METARs EXPIRÉS :
  • 091100Z AUTO 24010KT 200V300 9999 FEW042 26/15 Q1016 NOSIG
  • 091030Z AUTO 26010KT 210V300 9999 FEW033 25/15 Q1016 NOSIG
  • 091000Z AUTO 25008KT 180V310 9999 FEW032 24/16 Q1016 NOSIG
  • 090930Z AUTO 23010KT 200V270 9999 FEW027 24/16 Q1016 NOSIG
  • 090900Z AUTO 26008KT 220V300 9999 BKN027 22/16 Q1016 NOSIG

TAF TAF LFPB
Valide du 09 à 12h jusqu'au 10 à 12h UTC


091100Z 0912/1012 26012KT CAVOK
TEMPO 0915/0917 27015G25KT BKN013
PROB40
TEMPO 1008/1010 4000 -RA BKN008
BECMG 1010/1012 33012G25KT CAVOK
ATIS : +33 1 48 62 43 92



MET'MAP, la Météo Aéronautique d'un coup d'oeil ! - Copyright ORBIFLY Décembre 2007 - Disclaimer

ORBIFLY MET'MAP TEAM :

Programmation & Développement : Alexandra Zaïnal
Sur une idée originale de : Baudouin d'Aumeries
Assistance à la programmation : Marc-Olivier Méhu
Soutien technique & logistique : Manuel Goepfert

Contact : metmap@orbifly.com




SOURCES & CREDITS :

   NOAA